createdAt,value
2018-06-13T00:01:55.717Z,10.87
2018-06-13T00:04:25.893Z,13.27
2018-06-13T00:06:55.886Z,11.77
2018-06-13T00:09:25.890Z,12.17
2018-06-13T00:11:56.332Z,11.57
2018-06-13T00:14:26.391Z,12.00
2018-06-13T00:16:56.603Z,11.53
2018-06-13T00:19:26.652Z,11.70
2018-06-13T00:21:56.560Z,11.20
2018-06-13T00:24:27.143Z,13.43
2018-06-13T00:26:57.336Z,11.83
2018-06-13T00:29:27.354Z,12.87
2018-06-13T00:31:57.258Z,13.77
2018-06-13T00:34:27.593Z,14.57
2018-06-13T00:36:57.990Z,14.43
2018-06-13T00:39:28.212Z,11.00
2018-06-13T00:41:58.380Z,12.90
2018-06-13T00:44:28.808Z,12.17
2018-06-13T00:46:59.121Z,12.17
2018-06-13T00:49:29.385Z,10.27
2018-06-13T00:51:59.743Z,14.50
2018-06-13T00:54:29.895Z,10.60
2018-06-13T00:57:00.488Z,11.17
2018-06-13T00:59:30.344Z,13.43
2018-06-13T01:02:00.858Z,10.97
2018-06-13T01:04:31.223Z,11.33
2018-06-13T01:07:01.833Z,10.63
2018-06-13T01:09:31.975Z,13.17
2018-06-13T01:12:02.324Z,12.57
2018-06-13T01:14:32.255Z,11.40
2018-06-13T01:17:02.287Z,12.73
2018-06-13T01:19:32.352Z,14.13
2018-06-13T01:22:02.482Z,12.33
2018-06-13T01:24:32.367Z,12.73
2018-06-13T01:27:02.483Z,11.73
2018-06-13T01:29:32.351Z,12.27
2018-06-13T01:32:02.310Z,14.10
2018-06-13T01:34:32.316Z,10.30
2018-06-13T01:37:02.597Z,13.13
2018-06-13T01:39:32.648Z,12.23
2018-06-13T01:42:02.705Z,11.20
2018-06-13T01:44:32.672Z,13.73
2018-06-13T01:47:02.633Z,12.40
2018-06-13T01:49:33.251Z,9.43
2018-06-13T01:52:06.996Z,9.67
2018-06-13T01:54:37.583Z,12.80
2018-06-13T01:57:07.771Z,11.27
2018-06-13T01:59:37.901Z,10.73
2018-06-13T02:02:07.867Z,9.97
2018-06-13T02:04:37.897Z,10.27
2018-06-13T02:07:07.790Z,10.80
2018-06-13T02:09:38.117Z,12.13
2018-06-13T02:12:08.117Z,13.33
2018-06-13T02:14:38.097Z,11.37
2018-06-13T02:17:08.182Z,11.37
2018-06-13T02:19:38.111Z,10.97
2018-06-13T02:22:08.281Z,8.90
2018-06-13T02:24:38.297Z,9.53
2018-06-13T02:27:08.732Z,11.17
2018-06-13T02:29:38.700Z,9.20
2018-06-13T02:32:08.661Z,12.17
2018-06-13T02:34:38.837Z,16.50
2018-06-13T02:37:08.802Z,13.23
2018-06-13T02:39:38.912Z,14.20
2018-06-13T02:42:08.884Z,9.17
2018-06-13T02:44:38.872Z,9.83
2018-06-13T02:47:09.438Z,10.17
2018-06-13T02:49:40.034Z,13.23
2018-06-13T02:52:10.108Z,13.10
2018-06-13T02:54:40.226Z,12.50
2018-06-13T02:57:10.377Z,13.77
2018-06-13T02:59:40.622Z,13.97
2018-06-13T03:02:10.857Z,9.53
2018-06-13T03:04:40.836Z,10.13
2018-06-13T03:07:10.884Z,13.57
2018-06-13T03:09:40.920Z,10.80
2018-06-13T03:12:12.074Z,11.60
2018-06-13T03:14:42.548Z,11.43
2018-06-13T03:17:12.976Z,8.60
2018-06-13T03:19:43.293Z,13.17
2018-06-13T03:22:13.698Z,8.77
2018-06-13T03:24:44.289Z,9.40
2018-06-13T03:27:15.058Z,12.93
2018-06-13T03:29:45.380Z,12.20
2018-06-13T03:32:15.673Z,8.20
2018-06-13T03:34:45.831Z,9.97
2018-06-13T03:37:16.049Z,10.30
2018-06-13T03:39:46.129Z,14.00
2018-06-13T03:42:16.355Z,12.73
2018-06-13T03:44:46.940Z,9.00
2018-06-13T03:47:17.247Z,12.00
2018-06-13T03:49:47.293Z,7.80
2018-06-13T03:52:17.211Z,10.87
2018-06-13T03:54:47.216Z,9.70
2018-06-13T03:57:17.348Z,10.77
2018-06-13T03:59:47.645Z,8.43
2018-06-13T04:02:18.204Z,5.57
2018-06-13T04:04:48.312Z,9.30
2018-06-13T04:07:18.494Z,7.50
2018-06-13T04:09:48.514Z,11.60
2018-06-13T04:12:18.437Z,7.73
2018-06-13T04:14:48.465Z,9.13
2018-06-13T04:17:18.325Z,5.93
2018-06-13T04:19:48.295Z,8.63
2018-06-13T04:22:18.495Z,8.67
2018-06-13T04:24:48.486Z,6.33
2018-06-13T04:27:18.439Z,13.13
2018-06-13T04:29:48.563Z,9.67
2018-06-13T04:32:18.792Z,10.17
2018-06-13T04:34:49.057Z,12.00
2018-06-13T04:37:19.368Z,37.83
2018-06-13T04:39:49.224Z,11.70
2018-06-13T04:42:19.558Z,15.73
2018-06-13T04:44:49.384Z,15.50
2018-06-13T04:47:19.622Z,14.93
2018-06-13T04:49:49.872Z,11.70
2018-06-13T04:52:20.277Z,10.20
2018-06-13T04:54:50.611Z,10.23
2018-06-13T04:57:20.858Z,10.13
2018-06-13T04:59:51.547Z,11.17
2018-06-13T05:02:22.048Z,14.70
2018-06-13T05:04:52.357Z,11.03
2018-06-13T05:07:23.093Z,8.23
2018-06-13T05:09:53.649Z,8.90
2018-06-13T05:12:23.700Z,9.50
2018-06-13T05:14:54.168Z,9.93
2018-06-13T05:17:24.355Z,11.37
2018-06-13T05:19:55.076Z,8.10
2018-06-13T05:22:25.436Z,10.73
2018-06-13T05:24:55.800Z,9.20
2018-06-13T05:27:26.080Z,10.73
2018-06-13T05:29:56.109Z,9.23
2018-06-13T05:32:26.124Z,9.17
2018-06-13T05:34:57.134Z,9.87
2018-06-13T05:37:29.073Z,9.13
2018-06-13T05:39:59.235Z,8.83
2018-06-13T05:42:29.901Z,6.40
2018-06-13T05:45:00.155Z,7.77
2018-06-13T05:47:30.486Z,8.77
2018-06-13T05:50:00.392Z,7.57
2018-06-13T05:52:30.745Z,8.27
2018-06-13T05:55:01.164Z,11.00
2018-06-13T05:57:31.753Z,9.10
2018-06-13T06:00:02.041Z,12.90
2018-06-13T06:02:33.630Z,12.63
2018-06-13T06:05:03.596Z,8.83
2018-06-13T06:07:33.525Z,10.37
2018-06-13T06:10:03.386Z,13.43
2018-06-13T06:12:33.537Z,10.80
2018-06-13T06:15:04.016Z,10.17
2018-06-13T06:17:34.524Z,6.70
2018-06-13T06:20:05.631Z,7.93
2018-06-13T06:22:35.852Z,12.03
2018-06-13T06:25:06.308Z,10.17
2018-06-13T06:27:36.269Z,14.70
2018-06-13T06:30:06.256Z,9.53
2018-06-13T06:32:36.222Z,11.60
2018-06-13T06:35:06.324Z,14.27
2018-06-13T06:37:36.613Z,11.37
2018-06-13T06:40:06.896Z,10.00
2018-06-13T06:42:36.897Z,11.23
2018-06-13T06:45:06.778Z,9.67
2018-06-13T06:47:36.989Z,17.80
2018-06-13T06:50:06.936Z,10.10
2018-06-13T06:52:37.029Z,13.47
2018-06-13T06:55:07.121Z,15.13
2018-06-13T06:57:37.407Z,6.57
2018-06-13T07:00:08.055Z,16.07
2018-06-13T07:02:38.495Z,11.53
2018-06-13T07:05:08.817Z,9.77
2018-06-13T07:07:39.099Z,14.73
2018-06-13T07:10:09.597Z,8.70
2018-06-13T07:12:39.481Z,14.33
2018-06-13T07:15:10.221Z,13.53
2018-06-13T07:17:40.915Z,10.07
2018-06-13T07:20:11.621Z,17.77
2018-06-13T07:22:41.912Z,7.33
2018-06-13T07:25:11.888Z,7.30
2018-06-13T07:27:42.556Z,11.73
2018-06-13T07:30:12.428Z,11.53
2018-06-13T07:32:43.503Z,8.03
2018-06-13T07:35:13.341Z,7.70
2018-06-13T07:37:43.921Z,8.27
2018-06-13T07:40:14.140Z,16.20
2018-06-13T07:42:44.200Z,8.60
2018-06-13T07:45:14.174Z,9.77
2018-06-13T07:47:44.257Z,9.77
2018-06-13T07:50:14.185Z,15.03
2018-06-13T07:52:44.473Z,9.13
2018-06-13T07:55:14.480Z,9.73
2018-06-13T07:57:44.576Z,13.27
2018-06-13T08:00:14.528Z,12.13
2018-06-13T08:02:45.274Z,6.97
2018-06-13T08:05:15.216Z,10.40
2018-06-13T08:07:45.964Z,6.03
2018-06-13T08:10:16.117Z,9.80
2018-06-13T08:12:46.599Z,8.07
2018-06-13T08:15:16.816Z,5.80
2018-06-13T08:17:46.808Z,8.43
2018-06-13T08:20:16.836Z,6.93
2018-06-13T08:22:47.035Z,4.07
2018-06-13T08:25:16.939Z,6.17
2018-06-13T08:27:50.235Z,7.60
2018-06-13T08:30:20.687Z,8.87
2018-06-13T08:32:50.999Z,7.53
2018-06-13T08:35:21.178Z,5.00
2018-06-13T08:37:52.877Z,4.83
2018-06-13T08:40:22.981Z,4.80
2018-06-13T08:42:54.062Z,10.67
2018-06-13T08:45:24.225Z,3.40
2018-06-13T08:47:54.584Z,5.90
2018-06-13T08:50:24.909Z,3.73
2018-06-13T08:52:56.727Z,5.07
2018-06-13T08:55:27.227Z,8.43
2018-06-13T08:57:57.359Z,4.23
2018-06-13T09:00:27.355Z,4.97
2018-06-13T09:02:57.945Z,3.77
2018-06-13T09:05:28.892Z,7.17
2018-06-13T09:08:04.208Z,8.50
2018-06-13T09:10:36.047Z,5.10
2018-06-13T09:13:10.957Z,8.20
2018-06-13T09:15:46.385Z,5.07
2018-06-13T09:18:22.633Z,5.00
2018-06-13T09:20:58.313Z,8.43
2018-06-13T09:23:34.689Z,7.03
2018-06-13T09:26:10.553Z,6.47
2018-06-13T09:28:46.102Z,4.77
2018-06-13T09:31:21.069Z,3.73
2018-06-13T09:33:56.581Z,4.97
2018-06-13T09:36:32.244Z,5.27
2018-06-13T09:39:02.638Z,6.97
2018-06-13T09:41:43.633Z,6.47
2018-06-13T09:44:14.577Z,10.57
2018-06-13T09:46:48.919Z,8.33
2018-06-13T09:49:17.962Z,6.20
2018-06-13T09:51:53.476Z,6.00
2018-06-13T09:54:23.785Z,4.67
2018-06-13T09:56:53.715Z,4.40
2018-06-13T09:59:34.075Z,3.57
2018-06-13T10:02:09.639Z,5.67
2018-06-13T10:04:40.170Z,5.73
2018-06-13T10:07:11.758Z,6.23
2018-06-13T10:09:42.622Z,5.40
2018-06-13T10:12:12.699Z,3.67
2018-06-13T10:14:42.673Z,3.53
2018-06-13T10:17:12.691Z,6.53
2018-06-13T10:19:43.013Z,3.63
2018-06-13T10:22:13.092Z,4.50
2018-06-13T10:24:43.215Z,3.83
2018-06-13T10:27:18.825Z,3.93
2018-06-13T10:29:49.178Z,5.33
2018-06-13T10:32:19.249Z,6.00
2018-06-13T10:34:49.253Z,6.33
2018-06-13T10:37:19.769Z,7.43
2018-06-13T10:39:50.867Z,5.27
2018-06-13T10:42:21.307Z,4.77
2018-06-13T10:44:51.469Z,5.73
2018-06-13T10:47:21.613Z,5.70
2018-06-13T10:49:51.720Z,7.23
2018-06-13T10:52:21.633Z,6.37
2018-06-13T10:54:53.604Z,3.67
2018-06-13T10:57:22.259Z,5.00
2018-06-13T10:59:52.290Z,4.20
2018-06-13T11:02:22.173Z,5.80
2018-06-13T11:04:52.347Z,6.40
2018-06-13T11:07:22.561Z,4.23
2018-06-13T11:09:53.152Z,5.00
2018-06-13T11:12:23.576Z,6.03
2018-06-13T11:14:54.456Z,5.40
2018-06-13T11:17:30.448Z,3.77
2018-06-13T11:20:01.190Z,5.97
2018-06-13T11:22:31.617Z,5.53
2018-06-13T11:25:02.018Z,3.93
2018-06-13T11:27:32.068Z,3.43
2018-06-13T11:30:02.024Z,6.53
2018-06-13T11:32:32.161Z,6.37
2018-06-13T11:35:06.149Z,3.47
2018-06-13T11:37:37.445Z,4.83
2018-06-13T11:40:07.614Z,6.40
2018-06-13T11:42:38.729Z,5.07
2018-06-13T11:45:08.770Z,4.40
2018-06-13T11:47:39.201Z,5.93
2018-06-13T11:50:09.442Z,5.40
2018-06-13T11:52:39.550Z,6.77
2018-06-13T11:55:09.720Z,5.93
2018-06-13T11:57:39.921Z,3.80
2018-06-13T12:00:10.248Z,3.03
2018-06-13T12:02:40.492Z,5.67
2018-06-13T12:05:11.036Z,3.73
2018-06-13T12:07:41.429Z,4.27
2018-06-13T12:10:11.494Z,2.60
2018-06-13T12:12:42.077Z,5.13
2018-06-13T12:15:12.316Z,4.43
2018-06-13T12:17:42.445Z,6.33
2018-06-13T12:20:12.970Z,7.67
2018-06-13T12:22:43.445Z,4.33
2018-06-13T12:25:13.765Z,6.37
2018-06-13T12:27:44.322Z,5.10
2018-06-13T12:30:14.676Z,3.83
2018-06-13T12:32:45.685Z,2.67
2018-06-13T12:35:16.168Z,3.20
2018-06-13T12:37:46.818Z,2.90
2018-06-13T12:40:16.848Z,4.20
2018-06-13T12:42:46.847Z,5.00
2018-06-13T12:45:16.747Z,4.67
2018-06-13T12:47:47.451Z,6.40
2018-06-13T12:50:18.023Z,5.57
2018-06-13T12:52:48.233Z,3.53
2018-06-13T12:55:18.699Z,5.70
2018-06-13T12:57:48.832Z,5.27
2018-06-13T13:00:19.363Z,4.67
2018-06-13T13:02:49.411Z,3.23
2018-06-13T13:05:19.729Z,8.90
2018-06-13T13:07:50.357Z,3.73
2018-06-13T13:10:20.633Z,2.53
2018-06-13T13:12:50.520Z,5.13
2018-06-13T13:15:20.401Z,5.73
2018-06-13T13:17:50.456Z,2.97
2018-06-13T13:20:20.406Z,4.40
2018-06-13T13:22:50.549Z,4.40
2018-06-13T13:25:20.798Z,4.43
2018-06-13T13:27:50.695Z,3.70
2018-06-13T13:30:20.901Z,3.20
2018-06-13T13:32:51.056Z,6.83
2018-06-13T13:35:21.122Z,3.90
2018-06-13T13:37:51.019Z,2.90
2018-06-13T13:40:20.944Z,3.03
2018-06-13T13:42:51.205Z,3.73
2018-06-13T13:45:21.155Z,4.13
2018-06-13T13:47:51.392Z,2.57
2018-06-13T13:50:21.961Z,6.17
2018-06-13T13:52:51.835Z,5.63
2018-06-13T13:55:22.354Z,4.00
2018-06-13T13:57:52.361Z,4.00
2018-06-13T14:00:22.533Z,5.57
2018-06-13T14:02:52.878Z,4.83
2018-06-13T14:05:22.981Z,1.17
2018-06-13T14:07:53.033Z,4.73
2018-06-13T14:10:23.199Z,3.97
2018-06-13T14:12:53.067Z,2.67
2018-06-13T14:15:23.127Z,3.23
2018-06-13T14:17:52.986Z,1.73
2018-06-13T14:20:23.504Z,2.27
2018-06-13T14:22:53.740Z,4.20
2018-06-13T14:25:23.706Z,2.30
2018-06-13T14:27:54.348Z,2.17
2018-06-13T14:30:24.689Z,4.83
2018-06-13T14:32:54.783Z,3.63
2018-06-13T14:35:25.277Z,3.17
2018-06-13T14:37:55.594Z,2.27
2018-06-13T14:40:26.005Z,4.87
2018-06-13T14:42:55.703Z,7.07
2018-06-13T14:45:25.920Z,3.80
2018-06-13T14:47:56.304Z,2.00
2018-06-13T14:50:26.536Z,2.80
2018-06-13T14:52:56.753Z,2.90
2018-06-13T14:55:27.028Z,3.20
2018-06-13T14:57:57.432Z,5.53
2018-06-13T15:00:27.775Z,2.63
2018-06-13T15:02:58.056Z,3.50
2018-06-13T15:05:28.071Z,3.13
2018-06-13T15:07:58.454Z,5.10
2018-06-13T15:10:28.381Z,4.03
2018-06-13T15:12:58.821Z,1.97
2018-06-13T15:15:28.952Z,4.90
2018-06-13T15:17:59.265Z,4.23
2018-06-13T15:20:29.639Z,2.97
2018-06-13T15:22:59.626Z,4.03
2018-06-13T15:25:30.137Z,3.90
2018-06-13T15:28:00.248Z,4.60
2018-06-13T15:30:30.188Z,3.03
2018-06-13T15:33:00.433Z,4.03
2018-06-13T15:35:30.289Z,1.30
2018-06-13T15:38:00.560Z,3.13
2018-06-13T15:40:30.624Z,5.13
2018-06-13T15:43:01.026Z,4.57
2018-06-13T15:45:30.940Z,6.00
2018-06-13T15:48:01.424Z,1.77
2018-06-13T15:50:31.925Z,4.10
2018-06-13T15:53:01.799Z,3.17
2018-06-13T15:55:31.899Z,3.53
2018-06-13T15:58:02.137Z,1.67
2018-06-13T16:00:32.056Z,4.17
2018-06-13T16:03:02.087Z,2.60
2018-06-13T16:05:32.193Z,2.53
2018-06-13T16:08:02.139Z,3.10
2018-06-13T16:10:32.233Z,3.10
2018-06-13T16:13:02.373Z,3.10
2018-06-13T16:15:32.355Z,4.00
2018-06-13T16:18:02.460Z,5.10
2018-06-13T16:20:32.311Z,5.50
2018-06-13T16:23:02.568Z,3.17
2018-06-13T16:25:32.713Z,4.17
2018-06-13T16:28:02.742Z,6.87
2018-06-13T16:30:32.919Z,6.13
2018-06-13T16:33:02.876Z,5.93
2018-06-13T16:35:32.899Z,5.40
2018-06-13T16:38:02.913Z,5.97
2018-06-13T16:40:32.894Z,3.17
2018-06-13T16:43:03.371Z,9.03
2018-06-13T16:45:33.268Z,2.50
2018-06-13T16:48:03.640Z,3.87
2018-06-13T16:50:47.844Z,1.50
2018-06-13T16:53:28.439Z,2.80
2018-06-13T16:55:58.208Z,2.10
2018-06-13T16:58:28.376Z,1.90
2018-06-13T17:00:58.438Z,3.70
2018-06-13T17:03:28.590Z,1.50
2018-06-13T17:05:58.516Z,3.43
2018-06-13T17:08:29.261Z,2.97
2018-06-13T17:10:59.483Z,2.50
2018-06-13T17:13:29.892Z,3.03
2018-06-13T17:16:00.018Z,3.70
2018-06-13T17:18:30.448Z,1.90
2018-06-13T17:21:00.508Z,4.63
2018-06-13T17:23:30.792Z,5.13
2018-06-13T17:26:00.841Z,3.43
2018-06-13T17:28:31.073Z,5.07
2018-06-13T17:31:01.093Z,3.43
2018-06-13T17:33:31.814Z,4.27
2018-06-13T17:36:02.368Z,3.77
2018-06-13T17:38:32.318Z,4.60
2018-06-13T17:41:02.367Z,6.37
2018-06-13T17:43:32.752Z,3.10
2018-06-13T17:46:02.845Z,2.90
2018-06-13T17:48:33.911Z,2.40
2018-06-13T17:51:04.059Z,3.47
2018-06-13T17:53:34.264Z,2.73
2018-06-13T17:56:04.293Z,3.23
2018-06-13T17:58:34.789Z,2.70
2018-06-13T18:01:04.814Z,3.33
2018-06-13T18:03:34.913Z,2.83
2018-06-13T18:06:05.048Z,2.17
2018-06-13T18:08:35.153Z,2.90
2018-06-13T18:11:05.094Z,2.30
2018-06-13T18:13:35.209Z,2.17
2018-06-13T18:16:05.356Z,3.80
2018-06-13T18:18:35.271Z,4.50
2018-06-13T18:21:05.595Z,2.90
2018-06-13T18:23:35.589Z,2.53
2018-06-13T18:26:05.673Z,3.33
2018-06-13T18:28:35.559Z,4.23
2018-06-13T18:31:05.621Z,1.53
2018-06-13T18:33:35.473Z,5.23
2018-06-13T18:36:06.106Z,4.33
2018-06-13T18:38:36.080Z,3.43
2018-06-13T18:41:06.232Z,2.80
2018-06-13T18:43:36.145Z,2.47
2018-06-13T18:46:06.583Z,3.03
2018-06-13T18:48:37.403Z,2.40
2018-06-13T18:51:07.718Z,3.47
2018-06-13T18:53:38.091Z,4.03
2018-06-13T18:56:08.194Z,2.90
2018-06-13T18:58:38.184Z,3.47
2018-06-13T19:01:08.160Z,3.93
2018-06-13T19:03:38.294Z,3.37
2018-06-13T19:06:08.174Z,4.40
2018-06-13T19:08:38.128Z,4.93
2018-06-13T19:11:08.140Z,2.47
2018-06-13T19:13:38.597Z,3.67
2018-06-13T19:16:08.551Z,3.10
2018-06-13T19:18:38.325Z,2.47
2018-06-13T19:21:08.313Z,2.70
2018-06-13T19:23:38.084Z,5.57
2018-06-13T19:26:08.592Z,3.63
2018-06-13T19:28:39.144Z,5.23
2018-06-13T19:31:09.383Z,3.50
2018-06-13T19:33:39.756Z,4.67
2018-06-13T19:36:09.766Z,2.30
2018-06-13T19:38:40.253Z,4.47
2018-06-13T19:41:10.440Z,3.33
2018-06-13T19:43:42.300Z,4.70
2018-06-13T19:46:12.592Z,2.93
2018-06-13T19:48:52.182Z,2.87
2018-06-13T19:51:22.287Z,1.90
2018-06-13T19:56:04.263Z,4.20
2018-06-13T19:58:35.074Z,4.10
2018-06-13T20:01:05.141Z,3.03
2018-06-13T20:03:40.354Z,5.20
2018-06-13T20:06:10.740Z,5.00
2018-06-13T20:08:41.073Z,3.40
2018-06-13T20:11:11.680Z,4.03
2018-06-13T20:13:46.773Z,2.93
2018-06-13T20:16:31.745Z,4.43
2018-06-13T20:19:06.469Z,4.30
2018-06-13T20:21:36.624Z,2.80
2018-06-13T20:24:06.740Z,5.17
2018-06-13T20:26:41.765Z,1.90
2018-06-13T20:29:16.831Z,1.90
2018-06-13T20:31:48.080Z,3.03
2018-06-13T20:34:17.963Z,2.30
2018-06-13T20:36:48.588Z,1.90
2018-06-13T20:39:18.820Z,4.37
2018-06-13T20:41:48.753Z,3.10
2018-06-13T20:44:18.693Z,4.10
2018-06-13T20:46:48.732Z,2.40
2018-06-13T20:49:18.703Z,2.07
2018-06-13T20:51:48.943Z,4.27
2018-06-13T20:54:18.829Z,3.13
2018-06-13T20:56:49.247Z,2.30
2018-06-13T20:59:19.300Z,3.73
2018-06-13T21:01:49.248Z,3.03
2018-06-13T21:04:19.281Z,2.47
2018-06-13T21:06:49.272Z,3.50
2018-06-13T21:09:19.356Z,2.27
2018-06-13T21:11:49.399Z,4.70
2018-06-13T21:14:19.653Z,4.13
2018-06-13T21:16:49.919Z,1.97
2018-06-13T21:19:19.879Z,3.67
2018-06-13T21:21:50.163Z,4.10
2018-06-13T21:24:20.135Z,2.97
2018-06-13T21:26:50.444Z,3.30
2018-06-13T21:29:21.210Z,2.47
2018-06-13T21:31:51.700Z,3.83
2018-06-13T21:34:21.952Z,2.87
2018-06-13T21:36:52.265Z,2.67
2018-06-13T21:39:22.682Z,3.13
2018-06-13T21:41:53.216Z,6.93
2018-06-13T21:44:23.553Z,3.67
2018-06-13T21:46:53.759Z,5.87
2018-06-13T21:49:23.947Z,3.13
2018-06-13T21:51:54.214Z,6.30
2018-06-13T21:54:24.617Z,5.23
2018-06-13T21:56:54.839Z,3.67
2018-06-13T21:59:25.292Z,3.93
2018-06-13T22:01:56.748Z,7.70
2018-06-13T22:04:26.941Z,2.73
2018-06-13T22:06:57.237Z,3.63
2018-06-13T22:09:27.461Z,5.23
2018-06-13T22:11:57.841Z,2.83
2018-06-13T22:14:27.731Z,4.37
2018-06-13T22:16:58.083Z,4.93
2018-06-13T22:19:28.016Z,5.50
2018-06-13T22:21:58.581Z,5.57
2018-06-13T22:24:28.815Z,2.67
2018-06-13T22:26:58.980Z,4.17
2018-06-13T22:29:29.065Z,4.07
2018-06-13T22:31:59.788Z,2.60
2018-06-13T22:34:30.044Z,4.63
2018-06-13T22:37:00.093Z,5.20
2018-06-13T22:39:30.202Z,4.47
2018-06-13T22:42:00.414Z,3.60
2018-06-13T22:44:30.592Z,3.53
2018-06-13T22:47:01.617Z,3.70
2018-06-13T22:49:31.839Z,4.53
2018-06-13T22:52:02.358Z,6.03
2018-06-13T22:54:32.605Z,4.30
2018-06-13T22:57:02.925Z,4.80
2018-06-13T22:59:33.005Z,4.17
2018-06-13T23:02:03.116Z,4.47
2018-06-13T23:04:32.961Z,4.27
2018-06-13T23:07:03.061Z,5.10
2018-06-13T23:09:33.032Z,3.23
2018-06-13T23:12:03.073Z,6.13
2018-06-13T23:14:33.902Z,4.27
2018-06-13T23:17:04.037Z,5.90
2018-06-13T23:19:34.399Z,3.20
2018-06-13T23:22:04.600Z,3.70
2018-06-13T23:24:34.681Z,3.83
2018-06-13T23:27:05.116Z,7.90
2018-06-13T23:29:35.012Z,4.30
2018-06-13T23:32:04.983Z,3.23
2018-06-13T23:34:34.976Z,4.50
2018-06-13T23:37:05.071Z,3.10
2018-06-13T23:39:35.200Z,3.27
2018-06-13T23:42:05.188Z,5.20
2018-06-13T23:44:35.591Z,3.53
2018-06-13T23:47:05.805Z,4.77
2018-06-13T23:49:36.421Z,5.23
2018-06-13T23:52:06.627Z,6.47
2018-06-13T23:54:36.910Z,3.43
2018-06-13T23:57:07.128Z,4.97
2018-06-13T23:59:37.216Z,3.37
